createdAt,value
2017-12-15T00:00:07.788Z,0
2017-12-15T00:00:48.273Z,0
2017-12-15T00:01:28.865Z,0
2017-12-15T00:02:09.452Z,0
2017-12-15T00:02:49.879Z,0
2017-12-15T00:03:30.501Z,0
2017-12-15T00:04:10.970Z,0
2017-12-15T00:04:51.509Z,0
2017-12-15T00:05:32.118Z,0
2017-12-15T00:06:12.627Z,0
2017-12-15T00:06:53.104Z,0
2017-12-15T00:07:33.638Z,0
2017-12-15T00:08:14.202Z,0
2017-12-15T00:08:55.292Z,0
2017-12-15T00:09:35.656Z,0
2017-12-15T00:10:16.211Z,0
2017-12-15T00:10:56.719Z,0
2017-12-15T00:11:37.265Z,0
2017-12-15T00:12:17.830Z,0
2017-12-15T00:12:58.317Z,0
2017-12-15T00:13:38.857Z,0
2017-12-15T00:14:19.385Z,0
2017-12-15T00:14:59.999Z,0
2017-12-15T00:15:40.498Z,0
2017-12-15T00:16:21.053Z,0
2017-12-15T00:17:01.616Z,0
2017-12-15T00:17:42.248Z,0
2017-12-15T00:18:22.694Z,0
2017-12-15T00:19:03.233Z,0
2017-12-15T00:19:43.754Z,0
2017-12-15T00:20:24.274Z,0
2017-12-15T00:21:04.830Z,0
2017-12-15T00:21:45.371Z,0
2017-12-15T00:22:25.915Z,0
2017-12-15T00:23:06.510Z,0
2017-12-15T00:23:46.998Z,0
2017-12-15T00:24:27.558Z,0
2017-12-15T00:25:08.079Z,0
2017-12-15T00:25:48.624Z,0
2017-12-15T00:26:29.190Z,0
2017-12-15T00:27:09.748Z,0
2017-12-15T00:27:50.293Z,0
2017-12-15T00:28:30.863Z,0
2017-12-15T00:29:11.379Z,0
2017-12-15T00:29:51.900Z,0
2017-12-15T00:30:32.415Z,0
2017-12-15T00:31:12.945Z,0
2017-12-15T00:31:53.518Z,0
2017-12-15T00:32:34.020Z,0
2017-12-15T00:33:14.588Z,0
2017-12-15T00:33:55.090Z,0
2017-12-15T00:34:35.728Z,0
2017-12-15T00:35:16.256Z,0
2017-12-15T00:35:56.833Z,0
2017-12-15T00:36:37.302Z,0
2017-12-15T00:37:17.844Z,0
2017-12-15T00:37:58.343Z,0
2017-12-15T00:38:38.870Z,0
2017-12-15T00:39:19.438Z,0
2017-12-15T00:40:00.597Z,0
2017-12-15T00:40:40.513Z,0
2017-12-15T00:41:21.051Z,0
2017-12-15T00:42:01.663Z,0
2017-12-15T00:42:42.126Z,0
2017-12-15T00:43:22.636Z,0
2017-12-15T00:44:03.113Z,0
2017-12-15T00:44:43.629Z,0
2017-12-15T00:45:24.213Z,0
2017-12-15T00:46:04.707Z,0
2017-12-15T00:46:45.250Z,0
2017-12-15T00:47:25.766Z,0
2017-12-15T00:48:06.328Z,0
2017-12-15T00:48:46.880Z,0
2017-12-15T00:49:27.432Z,0
2017-12-15T00:50:07.965Z,0
2017-12-15T00:50:48.508Z,0
2017-12-15T00:51:29.325Z,0
2017-12-15T00:52:09.723Z,0
2017-12-15T00:52:50.315Z,0
2017-12-15T00:53:30.825Z,0
2017-12-15T00:54:11.325Z,0
2017-12-15T00:54:51.861Z,0
2017-12-15T00:55:32.394Z,0
2017-12-15T00:56:12.944Z,0
2017-12-15T00:56:53.582Z,0
2017-12-15T00:57:34.138Z,0
2017-12-15T00:58:14.654Z,0
2017-12-15T00:58:55.182Z,0
2017-12-15T00:59:35.699Z,0
2017-12-15T01:00:16.254Z,0
2017-12-15T01:00:56.922Z,0
2017-12-15T01:01:37.403Z,0
2017-12-15T01:02:17.967Z,0
2017-12-15T01:02:58.513Z,0
2017-12-15T01:03:39.010Z,0
2017-12-15T01:04:19.517Z,0
2017-12-15T01:05:00.117Z,0
2017-12-15T01:05:40.641Z,0
2017-12-15T01:06:21.122Z,0
2017-12-15T01:07:01.679Z,0
2017-12-15T01:07:42.249Z,0
2017-12-15T01:08:22.913Z,0
2017-12-15T01:09:03.367Z,0
2017-12-15T01:09:43.891Z,0
2017-12-15T01:10:24.457Z,0
2017-12-15T01:11:04.982Z,0
2017-12-15T01:11:45.544Z,0
2017-12-15T01:12:26.109Z,0
2017-12-15T01:13:06.662Z,0
2017-12-15T01:13:47.180Z,0
2017-12-15T01:14:27.710Z,0
2017-12-15T01:15:08.218Z,0
2017-12-15T01:15:48.758Z,0
2017-12-15T01:16:29.261Z,0
2017-12-15T01:17:09.878Z,0
2017-12-15T01:17:50.404Z,0
2017-12-15T01:18:30.930Z,0
2017-12-15T01:19:11.495Z,0
2017-12-15T01:19:52.050Z,0
2017-12-15T01:20:32.629Z,0
2017-12-15T01:21:13.186Z,0
2017-12-15T01:21:53.730Z,0
2017-12-15T01:22:34.297Z,0
2017-12-15T01:23:14.868Z,0
2017-12-15T01:23:55.457Z,0
2017-12-15T01:24:35.998Z,0
2017-12-15T01:25:16.577Z,0
2017-12-15T01:25:57.081Z,0
2017-12-15T01:26:37.606Z,0
2017-12-15T01:27:18.140Z,0
2017-12-15T01:27:58.691Z,0
2017-12-15T01:28:39.270Z,0
2017-12-15T01:29:19.799Z,0
2017-12-15T01:30:00.301Z,0
2017-12-15T01:30:40.831Z,0
2017-12-15T01:31:21.387Z,0
2017-12-15T01:32:02.000Z,0
2017-12-15T01:32:42.472Z,0
2017-12-15T01:33:23.087Z,0
2017-12-15T01:34:03.604Z,0
2017-12-15T01:34:44.110Z,0
2017-12-15T01:35:24.618Z,0
2017-12-15T01:36:05.143Z,0
2017-12-15T01:36:45.678Z,0
2017-12-15T01:37:26.261Z,0
2017-12-15T01:38:06.791Z,0
2017-12-15T01:38:47.298Z,0
2017-12-15T01:39:27.874Z,0
2017-12-15T01:40:08.449Z,0
2017-12-15T01:40:49.063Z,0
2017-12-15T01:41:29.553Z,0
2017-12-15T01:42:10.130Z,0
2017-12-15T01:42:50.738Z,0
2017-12-15T01:43:31.341Z,0
2017-12-15T01:44:11.847Z,0
2017-12-15T01:44:52.432Z,0
2017-12-15T01:45:32.927Z,0
2017-12-15T01:46:13.469Z,0
2017-12-15T01:46:54.031Z,0
2017-12-15T01:47:34.571Z,0
2017-12-15T01:48:15.136Z,0
2017-12-15T01:48:55.755Z,0
2017-12-15T01:49:36.223Z,0
2017-12-15T01:50:16.761Z,0
2017-12-15T01:50:57.304Z,0
2017-12-15T01:51:37.824Z,0
2017-12-15T01:52:18.405Z,0
2017-12-15T01:52:58.880Z,0
2017-12-15T01:53:39.475Z,0
2017-12-15T01:54:20.010Z,0
2017-12-15T01:55:00.546Z,0
2017-12-15T01:55:41.189Z,0
2017-12-15T01:56:21.587Z,0
2017-12-15T01:57:02.144Z,0
2017-12-15T01:57:42.702Z,0
2017-12-15T01:58:23.205Z,0
2017-12-15T01:59:03.746Z,0
2017-12-15T01:59:44.406Z,0
2017-12-15T02:00:24.940Z,0
2017-12-15T02:01:05.702Z,0
2017-12-15T02:01:46.151Z,0
2017-12-15T02:02:26.696Z,0
2017-12-15T02:03:07.262Z,0
2017-12-15T02:03:47.822Z,0
2017-12-15T02:04:28.368Z,0
2017-12-15T02:05:08.898Z,0
2017-12-15T02:05:49.495Z,0
2017-12-15T02:06:30.025Z,0
2017-12-15T02:07:10.567Z,0
2017-12-15T02:07:51.104Z,0
2017-12-15T02:08:31.619Z,0
2017-12-15T02:09:12.133Z,0
2017-12-15T02:09:52.657Z,0
2017-12-15T02:10:33.181Z,0
2017-12-15T02:11:13.787Z,0
2017-12-15T02:11:54.250Z,0
2017-12-15T02:12:34.787Z,0
2017-12-15T02:13:15.343Z,0
2017-12-15T02:13:55.890Z,0
2017-12-15T02:14:36.425Z,0
2017-12-15T02:15:16.991Z,0
2017-12-15T02:15:57.502Z,0
2017-12-15T02:16:38.076Z,0
2017-12-15T02:17:18.581Z,0
2017-12-15T02:17:59.110Z,0
2017-12-15T02:18:39.639Z,0
2017-12-15T02:19:20.192Z,0
2017-12-15T02:20:00.949Z,0
2017-12-15T02:20:41.787Z,0
2017-12-15T02:21:22.609Z,0
2017-12-15T02:22:03.535Z,0
2017-12-15T02:22:44.171Z,0
2017-12-15T02:23:24.842Z,0
2017-12-15T02:24:05.633Z,0
2017-12-15T02:24:46.688Z,0
2017-12-15T02:25:27.556Z,0
2017-12-15T02:26:08.125Z,0
2017-12-15T02:26:48.671Z,0
2017-12-15T02:27:29.422Z,0
2017-12-15T02:28:09.975Z,0
2017-12-15T02:28:50.660Z,0
2017-12-15T02:29:31.332Z,0
2017-12-15T02:30:11.989Z,0
2017-12-15T02:30:52.572Z,0
2017-12-15T02:31:33.272Z,0
2017-12-15T02:32:14.094Z,0
2017-12-15T02:32:54.826Z,0
2017-12-15T02:33:35.342Z,0
2017-12-15T02:34:16.040Z,0
2017-12-15T02:34:56.838Z,0
2017-12-15T02:35:37.665Z,0
2017-12-15T02:36:19.319Z,0
2017-12-15T02:37:00.108Z,0
2017-12-15T02:37:40.866Z,0
2017-12-15T02:38:21.626Z,0
2017-12-15T02:39:02.571Z,0
2017-12-15T02:39:43.185Z,0
2017-12-15T02:40:23.717Z,0
2017-12-15T02:41:04.315Z,0
2017-12-15T02:41:44.915Z,0
2017-12-15T02:42:25.571Z,0
2017-12-15T02:43:06.108Z,0
2017-12-15T02:43:46.745Z,0
2017-12-15T02:44:27.357Z,0
2017-12-15T02:45:08.077Z,0
2017-12-15T02:45:48.754Z,0
2017-12-15T02:46:29.267Z,0
2017-12-15T02:47:09.848Z,0
2017-12-15T02:47:50.400Z,0
2017-12-15T02:48:30.991Z,0
2017-12-15T02:49:11.725Z,0
2017-12-15T02:49:52.577Z,0
2017-12-15T02:50:33.138Z,0
2017-12-15T02:51:13.884Z,0
2017-12-15T02:51:54.870Z,0
2017-12-15T02:52:35.607Z,0
2017-12-15T02:53:16.392Z,0
2017-12-15T02:53:57.532Z,0
2017-12-15T02:54:38.040Z,0
2017-12-15T02:55:19.044Z,0
2017-12-15T02:55:59.641Z,0
2017-12-15T02:56:40.248Z,0
2017-12-15T02:57:20.952Z,0
2017-12-15T02:58:01.459Z,0
2017-12-15T02:58:42.186Z,0
2017-12-15T02:59:22.747Z,0
2017-12-15T03:00:03.374Z,0
2017-12-15T03:00:44.136Z,0
2017-12-15T03:01:25.083Z,0
2017-12-15T03:02:05.873Z,0
2017-12-15T03:02:46.824Z,0
2017-12-15T03:03:28.955Z,0
2017-12-15T03:04:09.384Z,0
2017-12-15T03:04:50.118Z,0
2017-12-15T03:05:30.722Z,0
2017-12-15T03:06:11.774Z,0
2017-12-15T03:06:52.593Z,0
2017-12-15T03:07:33.121Z,0
2017-12-15T03:08:13.765Z,0
2017-12-15T03:08:54.571Z,0
2017-12-15T03:09:35.095Z,0
2017-12-15T03:10:15.615Z,0
2017-12-15T03:10:56.863Z,0
2017-12-15T03:11:37.349Z,0
2017-12-15T03:12:18.109Z,0
2017-12-15T03:12:58.953Z,0
2017-12-15T03:13:39.625Z,0
2017-12-15T03:14:20.446Z,0
2017-12-15T03:15:00.982Z,0
2017-12-15T03:15:41.685Z,0
2017-12-15T03:16:22.445Z,0
2017-12-15T03:17:03.116Z,0
2017-12-15T03:17:44.261Z,0
2017-12-15T03:18:25.213Z,0
2017-12-15T03:19:06.004Z,0
2017-12-15T03:19:46.814Z,0
2017-12-15T03:20:27.228Z,0
2017-12-15T03:21:07.850Z,0
2017-12-15T03:21:48.580Z,0
2017-12-15T03:22:29.228Z,0
2017-12-15T03:23:09.964Z,0
2017-12-15T03:23:50.743Z,0
2017-12-15T03:24:32.085Z,0
2017-12-15T03:25:12.654Z,0
2017-12-15T03:25:53.594Z,0
2017-12-15T03:26:34.316Z,0
2017-12-15T03:27:15.045Z,0
2017-12-15T03:27:55.749Z,0
2017-12-15T03:28:36.495Z,0
2017-12-15T03:29:17.034Z,0
2017-12-15T03:29:57.615Z,0
2017-12-15T03:30:38.095Z,0
2017-12-15T03:31:18.599Z,0
2017-12-15T03:31:59.137Z,0
2017-12-15T03:32:39.699Z,0
2017-12-15T03:33:20.193Z,0
2017-12-15T03:34:00.762Z,0
2017-12-15T03:34:41.260Z,0
2017-12-15T03:35:21.857Z,0
2017-12-15T03:36:02.296Z,0
2017-12-15T03:36:42.859Z,0
2017-12-15T03:37:23.395Z,0
2017-12-15T03:38:03.956Z,0
2017-12-15T03:38:44.470Z,0
2017-12-15T03:39:25.208Z,0
2017-12-15T03:40:05.576Z,0
2017-12-15T03:40:46.167Z,0
2017-12-15T03:41:26.667Z,0
2017-12-15T03:42:07.151Z,0
2017-12-15T03:42:47.700Z,0
2017-12-15T03:43:28.213Z,0
2017-12-15T03:44:08.814Z,0
2017-12-15T03:44:49.286Z,0
2017-12-15T03:45:29.839Z,0
2017-12-15T03:46:10.359Z,0
2017-12-15T03:46:50.883Z,0
2017-12-15T03:47:31.388Z,0
2017-12-15T03:48:11.963Z,0
2017-12-15T03:48:52.436Z,0
2017-12-15T03:49:32.953Z,0
2017-12-15T03:50:13.527Z,0
2017-12-15T03:50:54.020Z,0
2017-12-15T03:51:34.618Z,0
2017-12-15T03:52:15.204Z,0
2017-12-15T03:52:55.752Z,0
2017-12-15T03:53:36.273Z,0
2017-12-15T03:54:16.833Z,0
2017-12-15T03:54:57.363Z,0
2017-12-15T03:55:37.912Z,0
2017-12-15T03:56:18.427Z,0
2017-12-15T03:56:58.939Z,0
2017-12-15T03:57:39.482Z,0
2017-12-15T03:58:20.104Z,0
2017-12-15T03:59:00.761Z,0
2017-12-15T03:59:41.299Z,0
2017-12-15T04:00:21.878Z,0
2017-12-15T04:01:02.429Z,0
2017-12-15T04:01:42.964Z,0
2017-12-15T04:02:23.493Z,0
2017-12-15T04:03:04.082Z,0
2017-12-15T04:03:44.669Z,0
2017-12-15T04:04:25.306Z,0
2017-12-15T04:05:05.848Z,0
2017-12-15T04:05:46.345Z,0
2017-12-15T04:06:26.928Z,0
2017-12-15T04:07:07.475Z,0
2017-12-15T04:07:48.029Z,0
2017-12-15T04:08:28.545Z,0
2017-12-15T04:09:09.082Z,0
2017-12-15T04:09:49.615Z,0
2017-12-15T04:10:30.142Z,0
2017-12-15T04:11:10.648Z,0
2017-12-15T04:11:51.177Z,0
2017-12-15T04:12:31.747Z,0
2017-12-15T04:13:12.225Z,0
2017-12-15T04:13:52.761Z,0
2017-12-15T04:14:33.326Z,0
2017-12-15T04:15:13.825Z,0
2017-12-15T04:15:54.382Z,0
2017-12-15T04:16:34.934Z,0
2017-12-15T04:17:15.460Z,0
2017-12-15T04:17:56.041Z,0
2017-12-15T04:18:36.697Z,0
2017-12-15T04:19:17.250Z,0
2017-12-15T04:19:57.790Z,0
2017-12-15T04:20:38.302Z,0
2017-12-15T04:21:18.893Z,0
2017-12-15T04:21:59.441Z,0
2017-12-15T04:22:39.918Z,0
2017-12-15T04:23:20.439Z,0
2017-12-15T04:24:00.904Z,0
2017-12-15T04:24:41.444Z,0
2017-12-15T04:25:21.981Z,0
2017-12-15T04:26:02.562Z,0
2017-12-15T04:26:43.102Z,0
2017-12-15T04:27:23.685Z,0
2017-12-15T04:28:04.210Z,0
2017-12-15T04:28:44.811Z,0
2017-12-15T04:29:25.272Z,0
2017-12-15T04:30:05.879Z,0
2017-12-15T04:30:46.368Z,0
2017-12-15T04:31:26.919Z,0
2017-12-15T04:32:07.471Z,0
2017-12-15T04:32:48.043Z,0
2017-12-15T04:33:28.521Z,0
2017-12-15T04:34:09.028Z,0
2017-12-15T04:34:49.566Z,0
2017-12-15T04:35:30.103Z,0
2017-12-15T04:36:10.602Z,0
2017-12-15T04:36:51.135Z,0
2017-12-15T04:37:31.727Z,0
2017-12-15T04:38:12.311Z,0
2017-12-15T04:38:52.816Z,0
2017-12-15T04:39:33.360Z,0
2017-12-15T04:40:13.853Z,0
2017-12-15T04:40:54.422Z,0
2017-12-15T04:41:34.984Z,0
2017-12-15T04:42:15.522Z,0
2017-12-15T04:42:55.988Z,0
2017-12-15T04:43:36.564Z,0
2017-12-15T04:44:17.097Z,0
2017-12-15T04:44:57.666Z,0
2017-12-15T04:45:38.196Z,0
2017-12-15T04:46:18.770Z,0
2017-12-15T04:46:59.300Z,0
2017-12-15T04:47:39.834Z,0
2017-12-15T04:48:20.380Z,0
2017-12-15T04:49:00.934Z,0
2017-12-15T04:49:41.413Z,0
2017-12-15T04:50:21.942Z,0
2017-12-15T04:51:02.529Z,0
2017-12-15T04:51:43.108Z,0
2017-12-15T04:52:23.660Z,0
2017-12-15T04:53:04.145Z,0
2017-12-15T04:53:44.687Z,0
2017-12-15T04:54:25.258Z,0
2017-12-15T04:55:05.765Z,0
2017-12-15T04:55:46.378Z,0
2017-12-15T04:56:26.931Z,0
2017-12-15T04:57:07.509Z,0
2017-12-15T04:57:47.975Z,0
2017-12-15T04:58:28.511Z,0
2017-12-15T04:59:09.029Z,0
2017-12-15T04:59:49.543Z,0
2017-12-15T05:00:30.228Z,0
2017-12-15T05:01:10.762Z,0
2017-12-15T05:01:51.294Z,0
2017-12-15T05:02:31.811Z,0
2017-12-15T05:03:12.375Z,0
2017-12-15T05:03:52.895Z,0
2017-12-15T05:04:33.437Z,0
2017-12-15T05:05:13.965Z,0
2017-12-15T05:05:54.537Z,0
2017-12-15T05:06:35.045Z,0
2017-12-15T05:07:15.590Z,0
2017-12-15T05:07:56.154Z,0
2017-12-15T05:08:36.678Z,0
2017-12-15T05:09:17.222Z,0
2017-12-15T05:09:57.688Z,0
2017-12-15T05:10:38.263Z,0
2017-12-15T05:11:18.822Z,0
2017-12-15T05:11:59.331Z,0
2017-12-15T05:12:39.965Z,0
2017-12-15T05:13:20.484Z,0
2017-12-15T05:14:00.964Z,0
2017-12-15T05:14:41.491Z,0
2017-12-15T05:15:22.044Z,0
2017-12-15T05:16:02.558Z,0
2017-12-15T05:16:43.090Z,0
2017-12-15T05:17:23.615Z,0
2017-12-15T05:18:04.181Z,0
2017-12-15T05:18:44.696Z,0
2017-12-15T05:19:25.209Z,0
2017-12-15T05:20:05.745Z,0
2017-12-15T05:20:46.301Z,0
2017-12-15T05:21:26.858Z,0
2017-12-15T05:22:07.393Z,0
2017-12-15T05:22:47.996Z,0
2017-12-15T05:23:28.532Z,0
2017-12-15T05:24:09.082Z,0
2017-12-15T05:24:49.625Z,0
2017-12-15T05:25:30.155Z,0
2017-12-15T05:26:10.698Z,0
2017-12-15T05:26:51.201Z,0
2017-12-15T05:27:31.777Z,0
2017-12-15T05:28:12.327Z,0
2017-12-15T05:28:52.843Z,0
2017-12-15T05:29:33.369Z,0
2017-12-15T05:30:13.905Z,0
2017-12-15T05:30:54.452Z,0
2017-12-15T05:31:34.949Z,0
2017-12-15T05:32:15.525Z,0
2017-12-15T05:32:56.042Z,0
2017-12-15T05:33:36.586Z,0
2017-12-15T05:34:17.076Z,0
2017-12-15T05:34:57.659Z,0
2017-12-15T05:35:38.194Z,0
2017-12-15T05:36:18.736Z,0
2017-12-15T05:36:59.256Z,0
2017-12-15T05:37:39.791Z,0
2017-12-15T05:38:20.318Z,0
2017-12-15T05:39:00.879Z,0
2017-12-15T05:39:41.388Z,0
2017-12-15T05:40:21.952Z,0
2017-12-15T05:41:02.445Z,0
2017-12-15T05:41:43.002Z,0
2017-12-15T05:42:23.528Z,0
2017-12-15T05:43:04.094Z,0
2017-12-15T05:43:44.623Z,0
2017-12-15T05:44:25.209Z,0
2017-12-15T05:45:05.737Z,0
2017-12-15T05:45:46.285Z,0
2017-12-15T05:46:26.845Z,0
2017-12-15T05:47:07.386Z,0
2017-12-15T05:47:47.899Z,0
2017-12-15T05:48:28.409Z,0
2017-12-15T05:49:09.034Z,0
2017-12-15T05:49:49.505Z,0
2017-12-15T05:50:30.116Z,0
2017-12-15T05:51:10.660Z,0
2017-12-15T05:51:51.162Z,0
2017-12-15T05:52:31.682Z,0
2017-12-15T05:53:12.212Z,0
2017-12-15T05:53:52.739Z,0
2017-12-15T05:54:33.248Z,0
2017-12-15T05:55:13.804Z,0
2017-12-15T05:55:54.313Z,0
2017-12-15T05:56:34.837Z,0
2017-12-15T05:57:15.393Z,0
2017-12-15T05:57:55.865Z,0
2017-12-15T05:58:36.446Z,0
2017-12-15T05:59:16.982Z,0
2017-12-15T05:59:57.513Z,0
2017-12-15T06:00:38.038Z,0
2017-12-15T06:01:18.629Z,0
2017-12-15T06:01:59.138Z,0
2017-12-15T06:02:39.723Z,0
2017-12-15T06:03:20.245Z,0
2017-12-15T06:04:00.827Z,0
2017-12-15T06:04:41.352Z,0
2017-12-15T06:05:21.861Z,0
2017-12-15T06:06:02.389Z,0
2017-12-15T06:06:42.957Z,0
2017-12-15T06:07:23.520Z,0
2017-12-15T06:08:04.058Z,0
2017-12-15T06:08:44.728Z,0
2017-12-15T06:09:25.176Z,0
2017-12-15T06:10:05.658Z,0
2017-12-15T06:10:46.236Z,0
2017-12-15T06:11:26.733Z,0
2017-12-15T06:12:07.293Z,0
2017-12-15T06:12:47.999Z,0
2017-12-15T06:13:28.565Z,0
2017-12-15T06:14:09.112Z,0
2017-12-15T06:14:49.679Z,0
2017-12-15T06:15:30.208Z,0
2017-12-15T06:16:10.764Z,0
2017-12-15T06:16:51.284Z,0
2017-12-15T06:17:31.789Z,0
2017-12-15T06:18:12.326Z,0
2017-12-15T06:18:52.873Z,0
2017-12-15T06:19:33.375Z,0
2017-12-15T06:20:13.880Z,0
2017-12-15T06:20:54.430Z,0
2017-12-15T06:21:34.979Z,0
2017-12-15T06:22:15.533Z,0
2017-12-15T06:22:56.005Z,0
2017-12-15T06:23:36.586Z,0
2017-12-15T06:24:17.211Z,0
2017-12-15T06:24:57.665Z,0
2017-12-15T06:25:38.183Z,0
2017-12-15T06:26:18.733Z,0
2017-12-15T06:26:59.421Z,0
2017-12-15T06:27:39.924Z,0
2017-12-15T06:28:20.473Z,0
2017-12-15T06:29:01.029Z,0
2017-12-15T06:29:41.553Z,0
2017-12-15T06:30:22.082Z,0
2017-12-15T06:31:02.649Z,0
2017-12-15T06:31:43.172Z,0
2017-12-15T06:32:23.683Z,0
2017-12-15T06:33:04.272Z,0
2017-12-15T06:33:44.813Z,0
2017-12-15T06:34:25.363Z,0
2017-12-15T06:35:05.954Z,0
2017-12-15T06:35:46.507Z,0
2017-12-15T06:36:27.144Z,0
2017-12-15T06:37:07.703Z,0
2017-12-15T06:37:48.194Z,0
2017-12-15T06:38:28.825Z,0
2017-12-15T06:39:09.352Z,0
2017-12-15T06:39:49.898Z,0
2017-12-15T06:40:30.452Z,0
2017-12-15T06:41:11.095Z,0
2017-12-15T06:41:51.546Z,0
2017-12-15T06:42:32.107Z,0
2017-12-15T06:43:12.658Z,0
2017-12-15T06:43:53.143Z,0
2017-12-15T06:44:33.670Z,0
2017-12-15T06:45:14.186Z,0
2017-12-15T06:45:54.750Z,0
2017-12-15T06:46:35.246Z,0
2017-12-15T06:47:15.780Z,0
2017-12-15T06:47:56.297Z,0
2017-12-15T06:48:36.970Z,0
2017-12-15T06:49:17.395Z,0
2017-12-15T06:49:57.910Z,0
2017-12-15T06:50:38.437Z,0
2017-12-15T06:51:19.001Z,0
2017-12-15T06:51:59.518Z,0
2017-12-15T06:52:40.086Z,0
2017-12-15T06:53:20.629Z,0
2017-12-15T06:54:01.125Z,0
2017-12-15T06:54:41.716Z,0
2017-12-15T06:55:22.201Z,0
2017-12-15T06:56:02.864Z,0
2017-12-15T06:56:43.395Z,0
2017-12-15T06:57:23.938Z,0
2017-12-15T06:58:04.572Z,0
2017-12-15T06:58:45.067Z,0
2017-12-15T06:59:25.576Z,0
2017-12-15T07:00:06.164Z,0
2017-12-15T07:00:46.665Z,0
2017-12-15T07:01:27.319Z,0
2017-12-15T07:02:07.787Z,0
2017-12-15T07:02:48.474Z,0
2017-12-15T07:03:29.024Z,0
2017-12-15T07:04:09.581Z,0
2017-12-15T07:04:50.130Z,0
2017-12-15T07:05:30.679Z,0
2017-12-15T07:06:11.192Z,0
2017-12-15T07:06:52.357Z,0
2017-12-15T07:07:33.928Z,0
2017-12-15T07:08:14.427Z,0
2017-12-15T07:08:55.822Z,0
2017-12-15T07:09:36.418Z,0
2017-12-15T07:10:17.281Z,0
2017-12-15T07:10:57.840Z,0
2017-12-15T07:11:38.549Z,0
2017-12-15T07:12:19.148Z,0
2017-12-15T07:13:01.659Z,0
2017-12-15T07:13:43.216Z,0
2017-12-15T07:14:23.769Z,0
2017-12-15T07:15:05.698Z,0
2017-12-15T07:15:46.271Z,0
2017-12-15T07:24:47.228Z,0
2017-12-15T07:25:27.759Z,0
2017-12-15T07:26:08.408Z,0
2017-12-15T07:26:48.888Z,0
2017-12-15T07:27:29.422Z,0
2017-12-15T07:28:09.958Z,0
2017-12-15T07:28:50.514Z,0
2017-12-15T07:29:31.077Z,0
2017-12-15T07:30:11.520Z,0
2017-12-15T07:30:52.189Z,0
2017-12-15T07:31:32.960Z,0
2017-12-15T07:32:13.783Z,0
2017-12-15T07:32:54.215Z,0
2017-12-15T07:33:34.671Z,0
2017-12-15T07:34:15.499Z,0
2017-12-15T07:34:56.081Z,0
2017-12-15T07:35:36.653Z,0
2017-12-15T07:36:17.261Z,0
2017-12-15T07:36:57.703Z,0
2017-12-15T07:37:38.185Z,0
2017-12-15T07:38:18.784Z,0
2017-12-15T07:38:59.323Z,0
2017-12-15T07:39:39.862Z,0
2017-12-15T07:40:20.329Z,0
2017-12-15T07:41:00.882Z,0
2017-12-15T07:41:41.447Z,0
2017-12-15T07:42:21.982Z,0
2017-12-15T07:43:02.494Z,0
2017-12-15T07:43:43.070Z,0
2017-12-15T07:44:23.572Z,0
2017-12-15T07:45:04.458Z,0
2017-12-15T07:45:45.439Z,0
2017-12-15T07:46:25.946Z,5
2017-12-15T07:47:06.491Z,5
2017-12-15T07:47:47.034Z,5
2017-12-15T07:48:27.637Z,5
2017-12-15T07:49:08.128Z,5
2017-12-15T07:49:48.655Z,5
2017-12-15T07:50:29.182Z,5
2017-12-15T07:51:09.707Z,5
2017-12-15T07:51:50.177Z,5
2017-12-15T07:52:30.887Z,5
2017-12-15T07:53:11.336Z,5
2017-12-15T07:53:51.862Z,5
2017-12-15T07:54:32.387Z,5
2017-12-15T07:55:12.959Z,5
2017-12-15T07:55:53.537Z,5
2017-12-15T07:56:34.066Z,5
2017-12-15T07:57:14.658Z,5
2017-12-15T07:57:55.156Z,5
2017-12-15T07:58:35.707Z,5
2017-12-15T07:59:16.232Z,5
2017-12-15T07:59:56.748Z,5
2017-12-15T08:00:37.275Z,5
2017-12-15T08:01:17.806Z,5
2017-12-15T08:01:58.372Z,5
2017-12-15T08:02:38.933Z,5
2017-12-15T08:03:19.518Z,5
2017-12-15T08:04:00.028Z,5
2017-12-15T08:04:40.620Z,5
2017-12-15T08:05:21.121Z,5
2017-12-15T08:06:01.626Z,10
2017-12-15T08:06:42.366Z,10
2017-12-15T08:07:22.908Z,10
2017-12-15T08:08:03.408Z,5
2017-12-15T08:08:43.996Z,10
2017-12-15T08:09:24.469Z,10
2017-12-15T08:10:05.052Z,10
2017-12-15T08:10:45.550Z,10
2017-12-15T08:11:26.119Z,10
2017-12-15T08:12:06.639Z,10
2017-12-15T08:12:47.175Z,10
2017-12-15T08:13:27.739Z,10
2017-12-15T08:14:08.223Z,10
2017-12-15T08:14:48.777Z,10
2017-12-15T08:15:29.334Z,10
2017-12-15T08:16:09.852Z,10
2017-12-15T08:16:50.397Z,10
2017-12-15T08:17:30.932Z,15
2017-12-15T08:18:11.500Z,15
2017-12-15T08:18:52.000Z,15
2017-12-15T08:19:32.558Z,15
2017-12-15T08:20:13.064Z,15
2017-12-15T08:20:53.647Z,15
2017-12-15T08:21:34.153Z,15
2017-12-15T08:22:14.708Z,10
2017-12-15T08:22:55.259Z,10
2017-12-15T08:23:35.723Z,15
2017-12-15T08:24:16.282Z,15
2017-12-15T08:24:56.825Z,15
2017-12-15T08:25:37.324Z,15
2017-12-15T08:26:17.936Z,20
2017-12-15T08:26:58.574Z,15
2017-12-15T08:27:39.090Z,15
2017-12-15T08:28:19.621Z,15
2017-12-15T08:29:00.135Z,15
2017-12-15T08:29:40.724Z,20
2017-12-15T08:30:21.232Z,20
2017-12-15T08:31:01.804Z,20
2017-12-15T08:31:42.316Z,20
2017-12-15T08:32:22.884Z,15
2017-12-15T08:33:03.340Z,15
2017-12-15T08:33:43.890Z,20
2017-12-15T08:34:24.458Z,20
2017-12-15T08:35:04.998Z,20
2017-12-15T08:35:45.514Z,20
2017-12-15T08:36:26.047Z,20
2017-12-15T08:37:06.596Z,25
2017-12-15T08:37:47.308Z,25
2017-12-15T08:38:27.845Z,25
2017-12-15T08:39:08.358Z,25
2017-12-15T08:39:48.895Z,25
2017-12-15T08:40:29.441Z,25
2017-12-15T08:41:09.980Z,25
2017-12-15T08:41:50.537Z,30
2017-12-15T08:42:31.072Z,35
2017-12-15T08:43:11.566Z,40
2017-12-15T08:43:52.119Z,40
2017-12-15T08:44:32.686Z,35
2017-12-15T08:45:13.217Z,35
2017-12-15T08:45:53.798Z,35
2017-12-15T08:46:34.386Z,30
2017-12-15T08:47:14.913Z,30
2017-12-15T08:47:55.515Z,30
2017-12-15T08:48:36.000Z,35
2017-12-15T08:49:16.551Z,35
2017-12-15T08:49:57.128Z,35
2017-12-15T08:50:37.806Z,35
2017-12-15T08:51:18.316Z,35
2017-12-15T08:51:58.832Z,40
2017-12-15T08:52:39.402Z,40
2017-12-15T08:53:19.934Z,40
2017-12-15T08:54:00.430Z,40
2017-12-15T08:54:40.941Z,40
2017-12-15T08:55:21.483Z,45
2017-12-15T08:56:02.114Z,40
2017-12-15T08:56:42.674Z,40
2017-12-15T08:57:23.284Z,50
2017-12-15T08:58:03.796Z,50
2017-12-15T08:58:44.364Z,50
2017-12-15T08:59:24.885Z,50
2017-12-15T09:00:05.404Z,50
2017-12-15T09:00:45.892Z,50
2017-12-15T09:01:26.458Z,50
2017-12-15T09:02:06.973Z,50
2017-12-15T09:02:47.559Z,50
2017-12-15T09:03:28.117Z,45
2017-12-15T09:04:08.706Z,45
2017-12-15T09:04:49.259Z,45
2017-12-15T09:05:30.385Z,45
2017-12-15T09:06:10.291Z,45
2017-12-15T09:06:50.841Z,40
2017-12-15T09:07:31.457Z,35
2017-12-15T09:08:11.961Z,35
2017-12-15T09:08:52.500Z,35
2017-12-15T09:09:33.004Z,30
2017-12-15T09:10:13.624Z,35
2017-12-15T09:10:54.262Z,35
2017-12-15T09:11:34.823Z,40
2017-12-15T09:12:15.327Z,45
2017-12-15T09:12:55.811Z,45
2017-12-15T09:13:36.336Z,50
2017-12-15T09:14:16.930Z,50
2017-12-15T09:14:57.459Z,55
2017-12-15T09:15:38.025Z,55
2017-12-15T09:16:18.549Z,55
2017-12-15T09:16:59.128Z,60
2017-12-15T09:17:39.642Z,60
2017-12-15T09:18:20.163Z,65
2017-12-15T09:19:00.737Z,65
2017-12-15T09:19:41.254Z,65
2017-12-15T09:20:21.784Z,65
2017-12-15T09:21:02.299Z,65
2017-12-15T09:21:42.842Z,65
2017-12-15T09:22:23.321Z,65
2017-12-15T09:23:03.864Z,65
2017-12-15T09:23:44.458Z,70
2017-12-15T09:24:25.018Z,70
2017-12-15T09:25:05.544Z,70
2017-12-15T09:25:46.152Z,70
2017-12-15T09:26:26.667Z,70
2017-12-15T09:27:07.198Z,70
2017-12-15T09:27:47.760Z,70
2017-12-15T09:28:29.106Z,70
2017-12-15T09:29:09.697Z,70
2017-12-15T09:29:50.176Z,75
2017-12-15T09:30:30.810Z,75
2017-12-15T09:31:11.341Z,80
2017-12-15T09:31:51.842Z,80
2017-12-15T09:32:32.398Z,85
2017-12-15T09:33:12.952Z,90
2017-12-15T09:33:53.487Z,95
2017-12-15T09:34:34.104Z,95
2017-12-15T09:35:14.647Z,95
2017-12-15T09:35:55.163Z,100
2017-12-15T09:36:35.798Z,100
2017-12-15T09:37:16.306Z,105
2017-12-15T09:37:56.794Z,105
2017-12-15T09:38:37.410Z,105
2017-12-15T09:39:17.960Z,110
2017-12-15T09:39:58.500Z,110
2017-12-15T09:40:38.998Z,110
2017-12-15T09:41:19.547Z,110
2017-12-15T09:42:00.135Z,110
2017-12-15T09:42:40.711Z,110
2017-12-15T09:43:21.295Z,105
2017-12-15T09:44:01.811Z,105
2017-12-15T09:44:42.371Z,105
2017-12-15T09:45:22.852Z,105
2017-12-15T09:46:03.391Z,105
2017-12-15T09:46:43.915Z,105
2017-12-15T09:47:24.401Z,105
2017-12-15T09:48:05.008Z,110
2017-12-15T09:48:45.559Z,110
2017-12-15T09:49:26.128Z,110
2017-12-15T09:50:06.688Z,110
2017-12-15T09:50:47.250Z,110
2017-12-15T09:51:27.771Z,110
2017-12-15T09:52:08.264Z,105
2017-12-15T09:52:48.820Z,110
2017-12-15T09:53:29.329Z,115
2017-12-15T09:54:09.918Z,115
2017-12-15T09:54:50.417Z,115
2017-12-15T09:55:30.969Z,115
2017-12-15T09:56:11.536Z,115
2017-12-15T09:56:52.075Z,110
2017-12-15T09:57:32.606Z,110
2017-12-15T09:58:13.138Z,110
2017-12-15T09:58:53.777Z,110
2017-12-15T09:59:34.348Z,105
2017-12-15T10:00:14.841Z,105
2017-12-15T10:00:55.324Z,85
2017-12-15T10:01:35.985Z,75
2017-12-15T10:02:16.699Z,75
2017-12-15T10:02:57.263Z,70